sensor_id;sensor_type;location;lat;lon;timestamp;temperature;humidity
73570;SHT30;61850;54.980;73.298;2023-02-18T00:00:52;-14.06;77.75
73570;SHT30;61850;54.980;73.298;2023-02-18T00:03:24;-14.03;77.82
73570;SHT30;61850;54.980;73.298;2023-02-18T00:05:51;-14.04;77.87
73570;SHT30;61850;54.980;73.298;2023-02-18T00:08:17;-13.98;77.81
73570;SHT30;61850;54.980;73.298;2023-02-18T00:10:50;-14.07;77.87
73570;SHT30;61850;54.980;73.298;2023-02-18T00:13:21;-14.04;78.06
73570;SHT30;61850;54.980;73.298;2023-02-18T00:15:48;-14.06;78.01
73570;SHT30;61850;54.980;73.298;2023-02-18T00:18:20;-14.10;77.97
73570;SHT30;61850;54.980;73.298;2023-02-18T00:20:51;-14.15;78.05
73570;SHT30;61850;54.980;73.298;2023-02-18T00:23:17;-14.14;78.15
73570;SHT30;61850;54.980;73.298;2023-02-18T00:25:43;-14.17;78.35
73570;SHT30;61850;54.980;73.298;2023-02-18T00:28:10;-14.18;78.42
73570;SHT30;61850;54.980;73.298;2023-02-18T00:30:41;-14.06;78.47
73570;SHT30;61850;54.980;73.298;2023-02-18T00:33:17;-14.06;78.39
73570;SHT30;61850;54.980;73.298;2023-02-18T00:35:45;-14.06;78.40
73570;SHT30;61850;54.980;73.298;2023-02-18T00:38:22;-14.03;78.20
73570;SHT30;61850;54.980;73.298;2023-02-18T00:40:48;-13.98;78.27
73570;SHT30;61850;54.980;73.298;2023-02-18T00:43:14;-13.93;78.45
73570;SHT30;61850;54.980;73.298;2023-02-18T00:45:51;-13.88;78.32
73570;SHT30;61850;54.980;73.298;2023-02-18T00:48:22;-13.83;78.29
73570;SHT30;61850;54.980;73.298;2023-02-18T00:50:48;-13.76;78.19
73570;SHT30;61850;54.980;73.298;2023-02-18T00:53:15;-13.76;77.99
73570;SHT30;61850;54.980;73.298;2023-02-18T00:55:52;-13.69;78.01
73570;SHT30;61850;54.980;73.298;2023-02-18T00:58:22;-13.67;78.03
73570;SHT30;61850;54.980;73.298;2023-02-18T01:00:59;-13.57;77.88
73570;SHT30;61850;54.980;73.298;2023-02-18T01:03:36;-13.62;77.85
73570;SHT30;61850;54.980;73.298;2023-02-18T01:06:03;-13.59;77.70
73570;SHT30;61850;54.980;73.298;2023-02-18T01:08:31;-13.60;77.61
73570;SHT30;61850;54.980;73.298;2023-02-18T01:10:58;-13.62;77.65
73570;SHT30;61850;54.980;73.298;2023-02-18T01:13:25;-13.67;77.65
73570;SHT30;61850;54.980;73.298;2023-02-18T01:16:02;-13.66;77.73
73570;SHT30;61850;54.980;73.298;2023-02-18T01:18:28;-13.71;77.66
73570;SHT30;61850;54.980;73.298;2023-02-18T01:20:55;-13.73;77.64
73570;SHT30;61850;54.980;73.298;2023-02-18T01:23:21;-13.74;77.69
73570;SHT30;61850;54.980;73.298;2023-02-18T01:25:47;-13.74;77.76
73570;SHT30;61850;54.980;73.298;2023-02-18T01:28:14;-13.74;77.85
73570;SHT30;61850;54.980;73.298;2023-02-18T01:30:40;-13.80;77.90
73570;SHT30;61850;54.980;73.298;2023-02-18T01:33:07;-13.86;78.05
73570;SHT30;61850;54.980;73.298;2023-02-18T01:35:38;-13.81;78.14
73570;SHT30;61850;54.980;73.298;2023-02-18T01:38:15;-13.83;78.22
73570;SHT30;61850;54.980;73.298;2023-02-18T01:40:47;-13.78;78.19
73570;SHT30;61850;54.980;73.298;2023-02-18T01:43:14;-13.77;78.15
73570;SHT30;61850;54.980;73.298;2023-02-18T01:46:25;-13.73;78.24
73570;SHT30;61850;54.980;73.298;2023-02-18T01:48:49;-13.77;78.25
73570;SHT30;61850;54.980;73.298;2023-02-18T01:51:25;-13.70;78.32
73570;SHT30;61850;54.980;73.298;2023-02-18T01:53:57;-13.71;78.31
73570;SHT30;61850;54.980;73.298;2023-02-18T01:56:32;-13.63;78.20
73570;SHT30;61850;54.980;73.298;2023-02-18T01:58:59;-13.67;78.09
73570;SHT30;61850;54.980;73.298;2023-02-18T02:01:26;-13.63;78.05
73570;SHT30;61850;54.980;73.298;2023-02-18T02:03:53;-13.60;78.01
73570;SHT30;61850;54.980;73.298;2023-02-18T02:06:20;-13.59;78.06
73570;SHT30;61850;54.980;73.298;2023-02-18T02:08:49;-13.55;78.06
73570;SHT30;61850;54.980;73.298;2023-02-18T02:14:35;-13.45;77.92
73570;SHT30;61850;54.980;73.298;2023-02-18T02:24:56;-13.19;77.72
73570;SHT30;61850;54.980;73.298;2023-02-18T02:35:09;-13.10;77.95
73570;SHT30;61850;54.980;73.298;2023-02-18T02:40:28;-13.10;77.84
73570;SHT30;61850;54.980;73.298;2023-02-18T02:48:36;-13.00;78.02
73570;SHT30;61850;54.980;73.298;2023-02-18T02:51:27;-12.91;77.71
73570;SHT30;61850;54.980;73.298;2023-02-18T02:54:08;-13.00;77.47
73570;SHT30;61850;54.980;73.298;2023-02-18T02:56:34;-13.00;77.54
73570;SHT30;61850;54.980;73.298;2023-02-18T02:59:06;-13.03;77.65
73570;SHT30;61850;54.980;73.298;2023-02-18T03:07:37;-13.01;77.63
73570;SHT30;61850;54.980;73.298;2023-02-18T03:15:54;-12.87;77.59
73570;SHT30;61850;54.980;73.298;2023-02-18T03:23:57;-12.80;77.53
73570;SHT30;61850;54.980;73.298;2023-02-18T03:26:23;-12.77;77.38
73570;SHT30;61850;54.980;73.298;2023-02-18T03:28:55;-12.76;77.39
73570;SHT30;61850;54.980;73.298;2023-02-18T03:31:24;-12.72;77.44
73570;SHT30;61850;54.980;73.298;2023-02-18T03:34:14;-12.70;77.20
73570;SHT30;61850;54.980;73.298;2023-02-18T03:36:42;-12.63;77.08
73570;SHT30;61850;54.980;73.298;2023-02-18T03:39:19;-12.60;77.07
73570;SHT30;61850;54.980;73.298;2023-02-18T03:41:48;-12.63;76.85
73570;SHT30;61850;54.980;73.298;2023-02-18T03:44:15;-12.67;76.92
73570;SHT30;61850;54.980;73.298;2023-02-18T03:46:46;-12.62;76.85
73570;SHT30;61850;54.980;73.298;2023-02-18T03:49:13;-12.63;76.82
73570;SHT30;61850;54.980;73.298;2023-02-18T03:51:40;-12.56;76.83
73570;SHT30;61850;54.980;73.298;2023-02-18T03:54:06;-12.55;76.72
73570;SHT30;61850;54.980;73.298;2023-02-18T03:56:35;-12.56;76.63
73570;SHT30;61850;54.980;73.298;2023-02-18T03:59:01;-12.52;76.76
73570;SHT30;61850;54.980;73.298;2023-02-18T04:01:32;-12.48;76.92
73570;SHT30;61850;54.980;73.298;2023-02-18T04:03:58;-12.37;76.53
73570;SHT30;61850;54.980;73.298;2023-02-18T04:06:24;-12.38;76.28
73570;SHT30;61850;54.980;73.298;2023-02-18T04:08:50;-12.31;76.27
73570;SHT30;61850;54.980;73.298;2023-02-18T04:11:26;-12.35;76.32
73570;SHT30;61850;54.980;73.298;2023-02-18T04:13:52;-12.22;76.18
73570;SHT30;61850;54.980;73.298;2023-02-18T04:16:23;-12.18;76.06
73570;SHT30;61850;54.980;73.298;2023-02-18T04:18:53;-12.14;75.85
73570;SHT30;61850;54.980;73.298;2023-02-18T04:21:24;-12.13;75.70
73570;SHT30;61850;54.980;73.298;2023-02-18T04:23:50;-12.04;75.59
73570;SHT30;61850;54.980;73.298;2023-02-18T04:26:25;-11.90;75.53
73570;SHT30;61850;54.980;73.298;2023-02-18T04:28:51;-11.90;75.79
73570;SHT30;61850;54.980;73.298;2023-02-18T04:31:28;-11.77;75.77
73570;SHT30;61850;54.980;73.298;2023-02-18T04:33:55;-11.66;75.42
73570;SHT30;61850;54.980;73.298;2023-02-18T04:36:22;-11.58;75.02
73570;SHT30;61850;54.980;73.298;2023-02-18T04:38:48;-11.60;74.90
73570;SHT30;61850;54.980;73.298;2023-02-18T04:41:17;-11.60;74.76
73570;SHT30;61850;54.980;73.298;2023-02-18T04:43:43;-11.46;74.49
73570;SHT30;61850;54.980;73.298;2023-02-18T04:46:09;-11.42;74.30
73570;SHT30;61850;54.980;73.298;2023-02-18T04:48:35;-11.40;74.17
73570;SHT30;61850;54.980;73.298;2023-02-18T04:51:11;-11.32;73.98
73570;SHT30;61850;54.980;73.298;2023-02-18T04:53:37;-11.12;73.36
73570;SHT30;61850;54.980;73.298;2023-02-18T04:56:03;-11.18;73.19
73570;SHT30;61850;54.980;73.298;2023-02-18T04:58:34;-11.27;73.25
73570;SHT30;61850;54.980;73.298;2023-02-18T05:01:02;-11.18;73.34
73570;SHT30;61850;54.980;73.298;2023-02-18T05:03:31;-11.08;73.25
73570;SHT30;61850;54.980;73.298;2023-02-18T05:05:57;-11.05;72.86
73570;SHT30;61850;54.980;73.298;2023-02-18T05:08:23;-11.08;73.08
73570;SHT30;61850;54.980;73.298;2023-02-18T05:10:53;-10.92;72.96
73570;SHT30;61850;54.980;73.298;2023-02-18T05:13:23;-11.15;72.90
73570;SHT30;61850;54.980;73.298;2023-02-18T05:15:49;-11.04;72.98
73570;SHT30;61850;54.980;73.298;2023-02-18T05:18:25;-11.04;73.23
73570;SHT30;61850;54.980;73.298;2023-02-18T05:20:51;-11.07;72.97
73570;SHT30;61850;54.980;73.298;2023-02-18T05:23:27;-11.08;72.86
73570;SHT30;61850;54.980;73.298;2023-02-18T05:25:53;-10.97;72.86
73570;SHT30;61850;54.980;73.298;2023-02-18T05:28:19;-11.01;72.87
73570;SHT30;61850;54.980;73.298;2023-02-18T05:30:51;-10.88;72.66
73570;SHT30;61850;54.980;73.298;2023-02-18T05:33:18;-10.85;72.43
73570;SHT30;61850;54.980;73.298;2023-02-18T05:35:43;-10.67;72.14
73570;SHT30;61850;54.980;73.298;2023-02-18T05:38:09;-10.59;71.88
73570;SHT30;61850;54.980;73.298;2023-02-18T05:40:39;-10.63;71.84
73570;SHT30;61850;54.980;73.298;2023-02-18T05:43:09;-10.52;71.83
73570;SHT30;61850;54.980;73.298;2023-02-18T05:45:35;-10.48;71.34
73570;SHT30;61850;54.980;73.298;2023-02-18T05:48:01;-10.38;71.43
73570;SHT30;61850;54.980;73.298;2023-02-18T05:50:33;-10.38;71.45
73570;SHT30;61850;54.980;73.298;2023-02-18T05:53:00;-10.25;71.01
73570;SHT30;61850;54.980;73.298;2023-02-18T05:55:36;-10.31;70.91
73570;SHT30;61850;54.980;73.298;2023-02-18T05:58:05;-10.15;70.51
73570;SHT30;61850;54.980;73.298;2023-02-18T06:00:31;-10.14;70.51
73570;SHT30;61850;54.980;73.298;2023-02-18T06:02:57;-10.28;70.95
73570;SHT30;61850;54.980;73.298;2023-02-18T06:05:24;-10.25;70.75
73570;SHT30;61850;54.980;73.298;2023-02-18T06:07:54;-10.25;70.77
73570;SHT30;61850;54.980;73.298;2023-02-18T06:10:20;-10.25;70.73
73570;SHT30;61850;54.980;73.298;2023-02-18T06:12:46;-10.21;71.03
73570;SHT30;61850;54.980;73.298;2023-02-18T06:15:17;-10.40;71.33
73570;SHT30;61850;54.980;73.298;2023-02-18T06:17:48;-10.24;71.01
73570;SHT30;61850;54.980;73.298;2023-02-18T06:20:14;-10.15;71.12
73570;SHT30;61850;54.980;73.298;2023-02-18T06:22:40;-10.29;71.13
73570;SHT30;61850;54.980;73.298;2023-02-18T06:25:06;-10.29;71.17
73570;SHT30;61850;54.980;73.298;2023-02-18T06:27:33;-10.32;71.33
73570;SHT30;61850;54.980;73.298;2023-02-18T06:29:59;-10.29;71.40
73570;SHT30;61850;54.980;73.298;2023-02-18T06:32:30;-10.22;71.18
73570;SHT30;61850;54.980;73.298;2023-02-18T06:34:56;-10.15;71.18
73570;SHT30;61850;54.980;73.298;2023-02-18T06:37:22;-10.14;71.15
73570;SHT30;61850;54.980;73.298;2023-02-18T06:39:53;-10.11;70.61
73570;SHT30;61850;54.980;73.298;2023-02-18T06:42:19;-10.21;70.68
73570;SHT30;61850;54.980;73.298;2023-02-18T06:44:50;-10.01;70.89
73570;SHT30;61850;54.980;73.298;2023-02-18T06:47:16;-9.94;70.55
73570;SHT30;61850;54.980;73.298;2023-02-18T06:49:43;-10.07;70.64
73570;SHT30;61850;54.980;73.298;2023-02-18T06:52:09;-9.98;70.86
73570;SHT30;61850;54.980;73.298;2023-02-18T06:54:45;-9.81;70.21
73570;SHT30;61850;54.980;73.298;2023-02-18T06:57:17;-9.87;70.17
73570;SHT30;61850;54.980;73.298;2023-02-18T06:59:43;-9.74;69.89
73570;SHT30;61850;54.980;73.298;2023-02-18T07:02:11;-9.62;69.36
73570;SHT30;61850;54.980;73.298;2023-02-18T07:04:38;-9.52;69.32
73570;SHT30;61850;54.980;73.298;2023-02-18T07:07:04;-9.57;68.83
73570;SHT30;61850;54.980;73.298;2023-02-18T07:09:30;-9.63;69.03
73570;SHT30;61850;54.980;73.298;2023-02-18T07:11:57;-9.64;68.94
73570;SHT30;61850;54.980;73.298;2023-02-18T07:14:23;-9.69;69.10
73570;SHT30;61850;54.980;73.298;2023-02-18T07:16:49;-9.77;69.24
73570;SHT30;61850;54.980;73.298;2023-02-18T07:19:15;-9.80;69.67
73570;SHT30;61850;54.980;73.298;2023-02-18T07:21:47;-9.74;69.59
73570;SHT30;61850;54.980;73.298;2023-02-18T07:24:13;-9.50;69.80
73570;SHT30;61850;54.980;73.298;2023-02-18T07:26:39;-9.32;69.16
73570;SHT30;61850;54.980;73.298;2023-02-18T07:29:05;-9.15;69.03
73570;SHT30;61850;54.980;73.298;2023-02-18T07:31:32;-9.25;68.68
73570;SHT30;61850;54.980;73.298;2023-02-18T07:33:58;-9.22;68.80
73570;SHT30;61850;54.980;73.298;2023-02-18T07:36:24;-8.88;68.64
73570;SHT30;61850;54.980;73.298;2023-02-18T07:38:50;-8.74;67.74
73570;SHT30;61850;54.980;73.298;2023-02-18T07:41:17;-8.70;67.84
73570;SHT30;61850;54.980;73.298;2023-02-18T07:43:44;-8.47;67.31
73570;SHT30;61850;54.980;73.298;2023-02-18T07:46:10;-8.44;66.77
73570;SHT30;61850;54.980;73.298;2023-02-18T07:48:36;-8.42;67.06
73570;SHT30;61850;54.980;73.298;2023-02-18T07:51:06;-8.04;66.75
73570;SHT30;61850;54.980;73.298;2023-02-18T07:53:32;-7.99;65.80
73570;SHT30;61850;54.980;73.298;2023-02-18T07:55:58;-8.18;65.53
73570;SHT30;61850;54.980;73.298;2023-02-18T07:58:30;-8.33;65.76
73570;SHT30;61850;54.980;73.298;2023-02-18T08:00:57;-8.52;66.32
73570;SHT30;61850;54.980;73.298;2023-02-18T08:03:25;-8.43;66.60
73570;SHT30;61850;54.980;73.298;2023-02-18T08:05:51;-8.29;66.24
73570;SHT30;61850;54.980;73.298;2023-02-18T08:08:20;-8.44;66.55
73570;SHT30;61850;54.980;73.298;2023-02-18T08:10:53;-8.25;65.94
73570;SHT30;61850;54.980;73.298;2023-02-18T08:13:21;-8.28;66.31
73570;SHT30;61850;54.980;73.298;2023-02-18T08:15:53;-8.35;66.31
73570;SHT30;61850;54.980;73.298;2023-02-18T08:18:25;-8.35;66.62
73570;SHT30;61850;54.980;73.298;2023-02-18T08:20:51;-8.18;66.25
73570;SHT30;61850;54.980;73.298;2023-02-18T08:23:18;-8.06;66.34
73570;SHT30;61850;54.980;73.298;2023-02-18T08:25:46;-8.25;66.53
73570;SHT30;61850;54.980;73.298;2023-02-18T08:28:23;-8.28;66.86
73570;SHT30;61850;54.980;73.298;2023-02-18T08:30:51;-8.35;67.17
73570;SHT30;61850;54.980;73.298;2023-02-18T08:33:17;-8.29;66.74
73570;SHT30;61850;54.980;73.298;2023-02-18T08:35:55;-8.28;66.51
73570;SHT30;61850;54.980;73.298;2023-02-18T08:38:22;-8.29;66.95
73570;SHT30;61850;54.980;73.298;2023-02-18T08:40:50;-8.30;66.54
73570;SHT30;61850;54.980;73.298;2023-02-18T08:43:26;-8.42;67.31
73570;SHT30;61850;54.980;73.298;2023-02-18T08:45:52;-8.40;67.33
73570;SHT30;61850;54.980;73.298;2023-02-18T08:48:19;-8.39;67.58
73570;SHT30;61850;54.980;73.298;2023-02-18T08:50:57;-8.29;67.49
73570;SHT30;61850;54.980;73.298;2023-02-18T08:53:23;-8.19;67.47
73570;SHT30;61850;54.980;73.298;2023-02-18T08:55:50;-8.16;67.06
73570;SHT30;61850;54.980;73.298;2023-02-18T08:58:17;-8.25;67.52
73570;SHT30;61850;54.980;73.298;2023-02-18T09:00:44;-8.57;68.22
73570;SHT30;61850;54.980;73.298;2023-02-18T09:03:12;-8.60;68.40
73570;SHT30;61850;54.980;73.298;2023-02-18T09:05:39;-8.56;68.74
73570;SHT30;61850;54.980;73.298;2023-02-18T09:08:06;-8.44;68.78
73570;SHT30;61850;54.980;73.298;2023-02-18T09:10:42;-8.30;68.62
73570;SHT30;61850;54.980;73.298;2023-02-18T09:13:09;-8.19;68.24
73570;SHT30;61850;54.980;73.298;2023-02-18T09:15:36;-8.11;68.32
73570;SHT30;61850;54.980;73.298;2023-02-18T09:18:07;-8.23;68.00
73570;SHT30;61850;54.980;73.298;2023-02-18T09:20:34;-8.16;68.27
73570;SHT30;61850;54.980;73.298;2023-02-18T09:23:01;-8.25;68.91
73570;SHT30;61850;54.980;73.298;2023-02-18T09:25:28;-8.29;68.51
73570;SHT30;61850;54.980;73.298;2023-02-18T09:28:04;-8.19;68.42
73570;SHT30;61850;54.980;73.298;2023-02-18T09:30:30;-8.36;68.70
73570;SHT30;61850;54.980;73.298;2023-02-18T09:32:57;-8.46;68.81
73570;SHT30;61850;54.980;73.298;2023-02-18T09:35:23;-8.67;69.52
73570;SHT30;61850;54.980;73.298;2023-02-18T09:37:50;-8.63;69.28
73570;SHT30;61850;54.980;73.298;2023-02-18T09:40:26;-8.68;69.35
73570;SHT30;61850;54.980;73.298;2023-02-18T09:42:56;-8.87;69.59
73570;SHT30;61850;54.980;73.298;2023-02-18T09:45:23;-8.90;70.18
73570;SHT30;61850;54.980;73.298;2023-02-18T09:47:50;-9.01;70.43
73570;SHT30;61850;54.980;73.298;2023-02-18T09:50:18;-9.01;70.46
73570;SHT30;61850;54.980;73.298;2023-02-18T09:52:57;-9.09;70.98
73570;SHT30;61850;54.980;73.298;2023-02-18T09:55:30;-9.08;70.47
73570;SHT30;61850;54.980;73.298;2023-02-18T09:57:58;-9.04;70.25
73570;SHT30;61850;54.980;73.298;2023-02-18T10:05:20;-9.32;70.86
73570;SHT30;61850;54.980;73.298;2023-02-18T10:07:48;-9.28;70.78
73570;SHT30;61850;54.980;73.298;2023-02-18T10:10:33;-9.31;70.65
73570;SHT30;61850;54.980;73.298;2023-02-18T10:13:13;-9.40;70.85
73570;SHT30;61850;54.980;73.298;2023-02-18T10:15:39;-9.44;71.21
73570;SHT30;61850;54.980;73.298;2023-02-18T10:18:21;-9.33;70.66
73570;SHT30;61850;54.980;73.298;2023-02-18T10:20:48;-9.26;70.60
73570;SHT30;61850;54.980;73.298;2023-02-18T10:23:18;-9.40;71.36
73570;SHT30;61850;54.980;73.298;2023-02-18T10:25:45;-9.40;71.07
73570;SHT30;61850;54.980;73.298;2023-02-18T10:28:13;-9.52;71.40
73570;SHT30;61850;54.980;73.298;2023-02-18T10:30:42;-9.54;71.37
73570;SHT30;61850;54.980;73.298;2023-02-18T10:36:15;-9.44;71.24
73570;SHT30;61850;54.980;73.298;2023-02-18T10:41:33;-9.59;71.92
73570;SHT30;61850;54.980;73.298;2023-02-18T10:49:54;-9.69;72.25
73570;SHT30;61850;54.980;73.298;2023-02-18T10:52:21;-9.69;72.18
73570;SHT30;61850;54.980;73.298;2023-02-18T10:54:57;-9.81;72.10
73570;SHT30;61850;54.980;73.298;2023-02-18T10:57:24;-9.74;72.32
73570;SHT30;61850;54.980;73.298;2023-02-18T10:59:55;-9.75;72.37
73570;SHT30;61850;54.980;73.298;2023-02-18T11:02:29;-9.67;72.28
73570;SHT30;61850;54.980;73.298;2023-02-18T11:05:05;-9.77;72.69
73570;SHT30;61850;54.980;73.298;2023-02-18T11:07:33;-9.73;72.78
73570;SHT30;61850;54.980;73.298;2023-02-18T11:10:15;-9.71;72.58
73570;SHT30;61850;54.980;73.298;2023-02-18T11:12:47;-9.78;72.75
73570;SHT30;61850;54.980;73.298;2023-02-18T11:15:24;-9.74;72.62
73570;SHT30;61850;54.980;73.298;2023-02-18T11:17:54;-9.74;72.81
73570;SHT30;61850;54.980;73.298;2023-02-18T11:20:35;-9.94;73.28
73570;SHT30;61850;54.980;73.298;2023-02-18T11:25:39;-10.11;73.12
73570;SHT30;61850;54.980;73.298;2023-02-18T11:30:42;-10.04;73.44
73570;SHT30;61850;54.980;73.298;2023-02-18T11:33:20;-10.04;73.00
73570;SHT30;61850;54.980;73.298;2023-02-18T11:38:17;-10.14;73.28
73570;SHT30;61850;54.980;73.298;2023-02-18T11:40:59;-10.22;74.36
73570;SHT30;61850;54.980;73.298;2023-02-18T11:43:29;-10.35;74.97
73570;SHT30;61850;54.980;73.298;2023-02-18T11:46:13;-10.40;75.42
73570;SHT30;61850;54.980;73.298;2023-02-18T11:48:44;-10.48;75.94
73570;SHT30;61850;54.980;73.298;2023-02-18T11:51:18;-10.63;76.53
73570;SHT30;61850;54.980;73.298;2023-02-18T11:53:56;-10.66;76.80
73570;SHT30;61850;54.980;73.298;2023-02-18T11:56:33;-10.80;77.41
73570;SHT30;61850;54.980;73.298;2023-02-18T11:59:00;-10.85;78.30
73570;SHT30;61850;54.980;73.298;2023-02-18T12:01:44;-10.92;79.65
73570;SHT30;61850;54.980;73.298;2023-02-18T12:04:13;-11.10;80.76
73570;SHT30;61850;54.980;73.298;2023-02-18T12:06:48;-11.17;81.48
73570;SHT30;61850;54.980;73.298;2023-02-18T12:11:55;-11.28;81.89
73570;SHT30;61850;54.980;73.298;2023-02-18T12:14:22;-11.36;82.14
73570;SHT30;61850;54.980;73.298;2023-02-18T12:28:25;-11.48;83.66
73570;SHT30;61850;54.980;73.298;2023-02-18T12:33:29;-11.45;83.36
73570;SHT30;61850;54.980;73.298;2023-02-18T12:51:32;-11.60;83.78
73570;SHT30;61850;54.980;73.298;2023-02-18T12:54:20;-11.62;83.64
73570;SHT30;61850;54.980;73.298;2023-02-18T12:59:40;-11.73;83.76
73570;SHT30;61850;54.980;73.298;2023-02-18T13:02:32;-11.76;83.87
73570;SHT30;61850;54.980;73.298;2023-02-18T13:06:07;-11.79;84.11
73570;SHT30;61850;54.980;73.298;2023-02-18T13:13:25;-11.77;83.92
73570;SHT30;61850;54.980;73.298;2023-02-18T13:15:59;-11.80;83.91
73570;SHT30;61850;54.980;73.298;2023-02-18T13:18:28;-11.67;84.15
73570;SHT30;61850;54.980;73.298;2023-02-18T13:20:58;-11.71;84.08
73570;SHT30;61850;54.980;73.298;2023-02-18T13:23:27;-11.71;84.40
73570;SHT30;61850;54.980;73.298;2023-02-18T13:25:56;-11.71;84.26
73570;SHT30;61850;54.980;73.298;2023-02-18T13:31:18;-11.69;84.25
73570;SHT30;61850;54.980;73.298;2023-02-18T13:39:05;-11.79;84.51
73570;SHT30;61850;54.980;73.298;2023-02-18T13:41:37;-11.79;84.45
73570;SHT30;61850;54.980;73.298;2023-02-18T13:44:08;-11.86;84.38
73570;SHT30;61850;54.980;73.298;2023-02-18T13:46:52;-11.86;84.63
73570;SHT30;61850;54.980;73.298;2023-02-18T13:49:22;-11.83;84.71
73570;SHT30;61850;54.980;73.298;2023-02-18T13:51:50;-11.90;84.88
73570;SHT30;61850;54.980;73.298;2023-02-18T13:57:02;-11.88;84.95
73570;SHT30;61850;54.980;73.298;2023-02-18T13:59:40;-11.86;85.13
73570;SHT30;61850;54.980;73.298;2023-02-18T14:04:51;-11.91;85.12
73570;SHT30;61850;54.980;73.298;2023-02-18T14:07:32;-11.94;84.95
73570;SHT30;61850;54.980;73.298;2023-02-18T14:25:48;-12.06;85.02
73570;SHT30;61850;54.980;73.298;2023-02-18T14:31:26;-12.08;84.88
73570;SHT30;61850;54.980;73.298;2023-02-18T14:46:34;-12.20;84.43
73570;SHT30;61850;54.980;73.298;2023-02-18T14:49:15;-12.22;84.41
73570;SHT30;61850;54.980;73.298;2023-02-18T14:51:43;-12.18;84.31
73570;SHT30;61850;54.980;73.298;2023-02-18T14:54:13;-12.14;84.14
73570;SHT30;61850;54.980;73.298;2023-02-18T14:56:55;-12.16;84.22
73570;SHT30;61850;54.980;73.298;2023-02-18T14:59:35;-12.18;84.32
73570;SHT30;61850;54.980;73.298;2023-02-18T15:02:02;-12.21;84.13
73570;SHT30;61850;54.980;73.298;2023-02-18T15:04:33;-12.25;84.17
73570;SHT30;61850;54.980;73.298;2023-02-18T15:07:10;-12.22;84.17
73570;SHT30;61850;54.980;73.298;2023-02-18T15:09:48;-12.25;84.10
73570;SHT30;61850;54.980;73.298;2023-02-18T15:12:28;-12.20;84.27
73570;SHT30;61850;54.980;73.298;2023-02-18T15:15:02;-12.17;84.30
73570;SHT30;61850;54.980;73.298;2023-02-18T15:17:29;-12.20;84.21
73570;SHT30;61850;54.980;73.298;2023-02-18T15:19:58;-12.22;84.31
73570;SHT30;61850;54.980;73.298;2023-02-18T15:22:31;-12.29;84.26
73570;SHT30;61850;54.980;73.298;2023-02-18T15:24:59;-12.27;84.28
73570;SHT30;61850;54.980;73.298;2023-02-18T15:27:30;-12.34;84.04
73570;SHT30;61850;54.980;73.298;2023-02-18T15:30:01;-12.41;84.13
73570;SHT30;61850;54.980;73.298;2023-02-18T15:32:30;-12.46;83.97
73570;SHT30;61850;54.980;73.298;2023-02-18T15:34:58;-12.39;84.04
73570;SHT30;61850;54.980;73.298;2023-02-18T15:37:26;-12.37;84.03
73570;SHT30;61850;54.980;73.298;2023-02-18T15:39:53;-12.41;83.96
73570;SHT30;61850;54.980;73.298;2023-02-18T15:42:26;-12.50;83.70
73570;SHT30;61850;54.980;73.298;2023-02-18T15:47:28;-12.48;83.98
73570;SHT30;61850;54.980;73.298;2023-02-18T15:49:56;-12.56;84.03
73570;SHT30;61850;54.980;73.298;2023-02-18T15:52:33;-12.49;84.02
73570;SHT30;61850;54.980;73.298;2023-02-18T15:55:05;-12.49;83.97
73570;SHT30;61850;54.980;73.298;2023-02-18T15:57:32;-12.46;84.24
73570;SHT30;61850;54.980;73.298;2023-02-18T16:02:52;-12.45;84.19
73570;SHT30;61850;54.980;73.298;2023-02-18T16:05:21;-12.60;84.20
73570;SHT30;61850;54.980;73.298;2023-02-18T16:07:58;-12.62;84.33
73570;SHT30;61850;54.980;73.298;2023-02-18T16:12:58;-12.63;84.53
73570;SHT30;61850;54.980;73.298;2023-02-18T16:15:29;-12.62;84.55
73570;SHT30;61850;54.980;73.298;2023-02-18T16:17:56;-12.55;84.50
73570;SHT30;61850;54.980;73.298;2023-02-18T16:20:32;-12.62;84.43
73570;SHT30;61850;54.980;73.298;2023-02-18T16:23:00;-12.67;84.55
73570;SHT30;61850;54.980;73.298;2023-02-18T16:25:49;-12.66;84.63
73570;SHT30;61850;54.980;73.298;2023-02-18T16:28:24;-12.67;84.65
73570;SHT30;61850;54.980;73.298;2023-02-18T16:31:03;-12.70;84.51
73570;SHT30;61850;54.980;73.298;2023-02-18T16:33:31;-12.72;84.77
73570;SHT30;61850;54.980;73.298;2023-02-18T16:35:58;-12.75;84.74
73570;SHT30;61850;54.980;73.298;2023-02-18T16:38:34;-12.75;84.90
73570;SHT30;61850;54.980;73.298;2023-02-18T16:41:01;-12.75;84.81
73570;SHT30;61850;54.980;73.298;2023-02-18T16:43:27;-12.73;84.71
73570;SHT30;61850;54.980;73.298;2023-02-18T16:46:05;-12.72;84.68
73570;SHT30;61850;54.980;73.298;2023-02-18T16:48:32;-12.75;84.38
73570;SHT30;61850;54.980;73.298;2023-02-18T16:51:10;-12.77;84.45
73570;SHT30;61850;54.980;73.298;2023-02-18T16:53:38;-12.81;84.35
73570;SHT30;61850;54.980;73.298;2023-02-18T16:56:05;-12.76;84.37
73570;SHT30;61850;54.980;73.298;2023-02-18T16:58:31;-12.79;84.23
73570;SHT30;61850;54.980;73.298;2023-02-18T17:01:03;-12.81;84.25
73570;SHT30;61850;54.980;73.298;2023-02-18T17:03:29;-12.83;84.23
73570;SHT30;61850;54.980;73.298;2023-02-18T17:05:56;-12.83;84.23
73570;SHT30;61850;54.980;73.298;2023-02-18T17:08:23;-12.84;84.29
73570;SHT30;61850;54.980;73.298;2023-02-18T17:10:51;-12.90;84.39
73570;SHT30;61850;54.980;73.298;2023-02-18T17:13:19;-12.91;84.31
73570;SHT30;61850;54.980;73.298;2023-02-18T17:15:48;-12.90;84.32
73570;SHT30;61850;54.980;73.298;2023-02-18T17:18:15;-12.90;84.19
73570;SHT30;61850;54.980;73.298;2023-02-18T17:20:46;-12.93;84.25
73570;SHT30;61850;54.980;73.298;2023-02-18T17:23:14;-12.96;84.13
73570;SHT30;61850;54.980;73.298;2023-02-18T17:25:51;-13.01;84.18
73570;SHT30;61850;54.980;73.298;2023-02-18T17:28:17;-13.01;84.25
73570;SHT30;61850;54.980;73.298;2023-02-18T17:30:55;-13.08;84.30
73570;SHT30;61850;54.980;73.298;2023-02-18T17:33:32;-13.12;84.39
73570;SHT30;61850;54.980;73.298;2023-02-18T17:35:58;-13.14;84.45
73570;SHT30;61850;54.980;73.298;2023-02-18T17:38:29;-13.22;84.41
73570;SHT30;61850;54.980;73.298;2023-02-18T17:41:10;-13.19;84.41
73570;SHT30;61850;54.980;73.298;2023-02-18T17:43:37;-13.24;84.48
73570;SHT30;61850;54.980;73.298;2023-02-18T17:46:04;-13.29;84.49
73570;SHT30;61850;54.980;73.298;2023-02-18T17:48:42;-13.31;84.45
73570;SHT30;61850;54.980;73.298;2023-02-18T17:51:29;-13.34;84.64
73570;SHT30;61850;54.980;73.298;2023-02-18T17:53:56;-13.36;84.56
73570;SHT30;61850;54.980;73.298;2023-02-18T17:56:23;-13.39;84.64
73570;SHT30;61850;54.980;73.298;2023-02-18T17:58:50;-13.42;84.73
73570;SHT30;61850;54.980;73.298;2023-02-18T18:01:16;-13.48;84.84
73570;SHT30;61850;54.980;73.298;2023-02-18T18:03:43;-13.56;84.98
73570;SHT30;61850;54.980;73.298;2023-02-18T18:06:19;-13.55;85.16